createdAt,value
2018-11-29T00:01:06.356Z,98685.83
2018-11-29T00:04:11.330Z,98688.53
2018-11-29T00:07:33.141Z,98680.95
2018-11-29T00:10:40.955Z,98679.78
2018-11-29T00:13:45.025Z,98673.02
2018-11-29T00:16:49.170Z,98671.88
2018-11-29T00:19:53.298Z,98668.19
2018-11-29T00:22:57.359Z,98671.27
2018-11-29T00:26:01.438Z,98673.06
2018-11-29T00:29:05.593Z,98670.36
2018-11-29T00:32:09.645Z,98665.69
2018-11-29T00:35:13.894Z,98663.38
2018-11-29T00:38:17.962Z,98669.19
2018-11-29T00:41:22.060Z,98677.30
2018-11-29T00:44:26.108Z,98674.79
2018-11-29T00:47:30.191Z,98672.09
2018-11-29T00:50:34.261Z,98666.28
2018-11-29T00:53:38.318Z,98659.13
2018-11-29T00:56:42.501Z,98654.30
2018-11-29T00:59:46.562Z,98660.89
2018-11-29T01:02:50.722Z,98654.89
2018-11-29T01:05:55.340Z,98659.72
2018-11-29T01:08:59.460Z,98663.58
2018-11-29T01:12:03.703Z,98661.44
2018-11-29T01:15:07.987Z,98661.82
2018-11-29T01:18:12.068Z,98656.22
2018-11-29T01:21:16.117Z,98652.16
2018-11-29T01:24:20.190Z,98661.23
2018-11-29T01:27:24.273Z,98662.98
2018-11-29T01:30:28.353Z,98664.73
2018-11-29T01:33:32.436Z,98665.91
2018-11-29T01:36:36.505Z,98662.98
2018-11-29T01:39:40.589Z,98654.28
2018-11-29T01:42:44.647Z,98670.13
2018-11-29T01:45:48.820Z,98678.27
2018-11-29T01:48:52.910Z,98679.83
2018-11-29T01:51:56.968Z,98669.75
2018-11-29T01:55:01.071Z,98665.69
2018-11-29T01:58:05.203Z,98658.92
2018-11-29T02:01:09.348Z,98649.65
2018-11-29T02:04:13.422Z,98644.45
2018-11-29T02:07:17.478Z,98637.67
2018-11-29T02:10:22.423Z,98635.74
2018-11-29T02:13:26.479Z,98627.83
2018-11-29T02:16:30.564Z,98624.34
2018-11-29T02:19:34.641Z,98626.28
2018-11-29T02:22:38.698Z,98627.63
2018-11-29T02:25:42.784Z,98626.25
2018-11-29T02:28:47.212Z,98629.13
2018-11-29T02:31:51.377Z,98618.25
2018-11-29T02:34:56.301Z,98614.20
2018-11-29T02:38:00.387Z,98609.17
2018-11-29T02:41:05.407Z,98593.55
2018-11-29T02:44:09.452Z,98601.13
2018-11-29T02:47:13.527Z,98592.04
2018-11-29T02:50:17.616Z,98599.60
2018-11-29T02:53:21.664Z,98592.05
2018-11-29T02:56:25.750Z,98593.61
2018-11-29T02:59:29.801Z,98595.92
2018-11-29T03:02:33.873Z,98584.34
2018-11-29T03:05:37.934Z,98573.88
2018-11-29T03:08:42.008Z,98572.14
2018-11-29T03:11:46.134Z,98572.54
2018-11-29T03:14:50.219Z,98576.59
2018-11-29T03:17:54.296Z,98587.05
2018-11-29T03:20:58.361Z,98586.25
2018-11-29T03:24:02.428Z,98583.96
2018-11-29T03:27:06.508Z,98578.92
2018-11-29T03:30:10.587Z,98581.63
2018-11-29T03:33:14.664Z,98577.94
2018-11-29T03:36:18.730Z,98567.51
2018-11-29T03:39:22.803Z,98570.03
2018-11-29T03:42:26.899Z,98572.73
2018-11-29T03:45:30.973Z,98585.88
2018-11-29T03:48:35.048Z,98582.41
2018-11-29T03:51:39.123Z,98578.94
2018-11-29T03:54:43.204Z,98576.04
2018-11-29T03:57:47.283Z,98554.78
2018-11-29T04:00:51.354Z,98548.97
2018-11-29T04:03:55.420Z,98547.84
2018-11-29T04:06:59.494Z,98548.41
2018-11-29T04:10:04.290Z,98553.23
2018-11-29T04:13:08.362Z,98557.88
2018-11-29T04:16:12.448Z,98562.91
2018-11-29T04:19:16.516Z,98560.37
2018-11-29T04:22:20.594Z,98562.69
2018-11-29T04:25:24.659Z,98551.08
2018-11-29T04:28:28.733Z,98551.47
2018-11-29T04:31:32.823Z,98551.87
2018-11-29T04:34:36.887Z,98551.30
2018-11-29T04:37:41.214Z,98550.52
2018-11-29T04:40:45.350Z,98538.27
2018-11-29T04:43:49.429Z,98537.51
2018-11-29T04:46:53.660Z,98526.11
2018-11-29T04:49:57.724Z,98531.57
2018-11-29T04:53:01.807Z,98527.70
2018-11-29T04:56:05.866Z,98513.22
2018-11-29T04:59:09.948Z,98508.97
2018-11-29T05:02:14.033Z,98512.84
2018-11-29T05:05:18.097Z,98524.06
2018-11-29T05:08:22.162Z,98520.20
2018-11-29T05:11:26.307Z,98521.55
2018-11-29T05:14:30.386Z,98513.21
2018-11-29T05:17:34.456Z,98520.54
2018-11-29T05:20:38.541Z,98515.48
2018-11-29T05:23:42.601Z,98515.48
2018-11-29T05:26:46.685Z,98522.41
2018-11-29T05:29:50.764Z,98529.75
2018-11-29T05:32:54.838Z,98531.26
2018-11-29T05:35:58.935Z,98537.04
2018-11-29T05:39:03.956Z,98540.89
2018-11-29T05:42:08.025Z,98534.73
2018-11-29T05:45:12.244Z,98535.73
2018-11-29T05:48:16.336Z,98526.08
2018-11-29T05:51:20.408Z,98527.61
2018-11-29T05:54:24.576Z,98529.95
2018-11-29T05:57:28.635Z,98541.40
2018-11-29T06:00:32.886Z,98543.92
2018-11-29T06:03:36.937Z,98549.16
2018-11-29T06:06:41.030Z,98541.02
2018-11-29T06:09:45.085Z,98532.30
2018-11-29T06:12:49.173Z,98534.25
2018-11-29T06:15:53.256Z,98529.80
2018-11-29T06:18:57.331Z,98527.18
2018-11-29T06:22:01.407Z,98515.78
2018-11-29T06:25:06.228Z,98515.84
2018-11-29T06:28:10.297Z,98517.02
2018-11-29T06:31:14.487Z,98515.09
2018-11-29T06:34:18.552Z,98518.92
2018-11-29T06:37:22.631Z,98515.25
2018-11-29T06:40:26.690Z,98525.09
2018-11-29T06:43:30.766Z,98525.42
2018-11-29T06:46:34.846Z,98509.34
2018-11-29T06:49:38.900Z,98511.14
2018-11-29T06:52:43.132Z,98510.77
2018-11-29T06:55:47.208Z,98507.73
2018-11-29T06:58:51.287Z,98508.36
2018-11-29T07:01:55.420Z,98502.10
2018-11-29T07:04:59.487Z,98490.48
2018-11-29T07:08:03.638Z,98482.56
2018-11-29T07:11:07.695Z,98478.28
2018-11-29T07:14:11.797Z,98488.78
2018-11-29T07:17:15.854Z,98477.16
2018-11-29T07:20:19.947Z,98482.19
2018-11-29T07:23:24.029Z,98493.02
2018-11-29T07:26:28.092Z,98495.33
2018-11-29T07:29:32.165Z,98507.21
2018-11-29T07:32:36.251Z,98512.84
2018-11-29T07:35:40.339Z,98514.59
2018-11-29T07:38:44.410Z,98503.19
2018-11-29T07:41:48.497Z,98502.80
2018-11-29T07:44:52.575Z,98497.41
2018-11-29T07:47:56.658Z,98491.23
2018-11-29T07:51:00.818Z,98488.12
2018-11-29T07:54:05.248Z,98493.16
2018-11-29T07:57:09.312Z,98487.72
2018-11-29T08:00:13.720Z,98482.11
2018-11-29T08:03:17.794Z,98476.12
2018-11-29T08:06:21.891Z,98475.91
2018-11-29T08:09:26.231Z,98471.28
2018-11-29T08:12:30.308Z,98475.31
2018-11-29T08:15:34.443Z,98473.31
2018-11-29T08:18:38.522Z,98472.08
2018-11-29T08:21:42.593Z,98466.27
2018-11-29T08:24:46.670Z,98469.52
2018-11-29T08:27:50.760Z,98469.31
2018-11-29T08:30:54.844Z,98470.89
2018-11-29T08:33:58.921Z,98459.84
2018-11-29T08:37:03.050Z,98461.75
2018-11-29T08:40:07.091Z,98450.70
2018-11-29T08:43:11.166Z,98443.36
2018-11-29T08:46:15.250Z,98441.86
2018-11-29T08:49:19.331Z,98441.15
2018-11-29T08:52:23.402Z,98435.09
2018-11-29T08:55:27.482Z,98432.97
2018-11-29T08:58:31.563Z,98421.77
2018-11-29T09:01:35.644Z,98417.56
2018-11-29T09:04:39.723Z,98420.42
2018-11-29T09:07:43.937Z,98423.83
2018-11-29T09:10:48.014Z,98417.05
2018-11-29T09:13:52.073Z,98416.59
2018-11-29T09:16:56.168Z,98415.29
2018-11-29T09:20:00.234Z,98415.64
2018-11-29T09:23:05.276Z,98414.14
2018-11-29T09:26:09.328Z,98408.84
2018-11-29T09:29:13.845Z,98413.22
2018-11-29T09:32:17.981Z,98408.78
2018-11-29T09:35:22.054Z,98414.67
2018-11-29T09:38:26.132Z,98416.82
2018-11-29T09:41:30.291Z,98425.20
2018-11-29T09:44:34.365Z,98438.44
2018-11-29T09:47:38.462Z,98436.97
2018-11-29T09:50:42.549Z,98428.16
2018-11-29T09:53:46.634Z,98435.34
2018-11-29T09:56:50.703Z,98433.95
2018-11-29T09:59:54.797Z,98427.72
2018-11-29T10:02:58.916Z,98410.23
2018-11-29T10:06:02.990Z,98398.05
2018-11-29T10:09:07.232Z,98379.97
2018-11-29T10:12:11.298Z,98373.31
2018-11-29T10:15:15.380Z,98359.49
2018-11-29T10:18:19.486Z,98362.05
2018-11-29T10:21:23.555Z,98357.30
2018-11-29T10:24:27.645Z,98351.39
2018-11-29T10:27:31.721Z,98349.11
2018-11-29T10:30:35.809Z,98341.48
2018-11-29T10:33:40.781Z,98339.39
2018-11-29T10:36:44.888Z,98339.69
2018-11-29T10:39:48.955Z,98327.84
2018-11-29T10:42:53.033Z,98334.34
2018-11-29T10:45:57.121Z,98338.63
2018-11-29T10:49:01.189Z,98334.47
2018-11-29T10:52:05.526Z,98320.34
2018-11-29T10:55:09.740Z,98322.29
2018-11-29T10:58:13.818Z,98319.78
2018-11-29T11:01:18.770Z,98312.52
2018-11-29T11:04:22.845Z,98307.13
2018-11-29T11:07:26.930Z,98309.92
2018-11-29T11:10:31.084Z,98307.56
2018-11-29T11:13:35.165Z,98301.59
2018-11-29T11:16:40.168Z,98306.31
2018-11-29T11:19:44.236Z,98295.74
2018-11-29T11:22:48.402Z,98301.98
2018-11-29T11:25:52.479Z,98305.05
2018-11-29T11:28:56.570Z,98301.50
2018-11-29T11:32:00.651Z,98308.22
2018-11-29T11:35:05.871Z,98305.95
2018-11-29T11:38:09.958Z,98305.22
2018-11-29T11:41:14.014Z,98301.09
2018-11-29T11:44:18.193Z,98292.95
2018-11-29T11:47:22.332Z,98278.42
2018-11-29T11:50:26.455Z,98273.73
2018-11-29T11:53:30.564Z,98277.73
2018-11-29T11:56:34.635Z,98289.94
2018-11-29T11:59:38.720Z,98301.26
2018-11-29T12:02:42.952Z,98292.82
2018-11-29T12:05:47.102Z,98282.20
2018-11-29T12:08:51.167Z,98275.03
2018-11-29T12:11:55.257Z,98265.95
2018-11-29T12:14:59.351Z,98257.14
2018-11-29T12:18:03.497Z,98256.02
2018-11-29T12:21:07.579Z,98250.91
2018-11-29T12:24:12.540Z,98248.30
2018-11-29T12:27:16.618Z,98244.17
2018-11-29T12:30:20.784Z,98244.44
2018-11-29T12:33:24.860Z,98237.72
2018-11-29T12:36:28.969Z,98241.66
2018-11-29T12:39:33.019Z,98231.72
2018-11-29T12:42:37.110Z,98219.92
2018-11-29T12:45:41.206Z,98216.73
2018-11-29T12:48:45.267Z,98205.06
2018-11-29T12:51:49.359Z,98192.47
2018-11-29T12:54:53.420Z,98191.38
2018-11-29T12:58:05.254Z,98179.35
2018-11-29T13:01:02.479Z,98183.81
2018-11-29T13:04:06.772Z,98186.55
2018-11-29T13:07:10.857Z,98191.00
2018-11-29T13:10:14.937Z,98193.64
2018-11-29T13:13:19.018Z,98185.89
2018-11-29T13:16:23.099Z,98178.92
2018-11-29T13:19:27.292Z,98178.25
2018-11-29T13:22:31.343Z,98171.09
2018-11-29T13:25:35.492Z,98169.05
2018-11-29T13:28:39.577Z,98170.19
2018-11-29T13:31:43.663Z,98175.30
2018-11-29T13:34:47.742Z,98175.05
2018-11-29T13:37:51.815Z,98160.32
2018-11-29T13:40:55.910Z,98160.32
2018-11-29T13:44:00.070Z,98149.43
2018-11-29T13:47:04.480Z,98148.23
2018-11-29T13:50:08.641Z,98146.11
2018-11-29T13:53:12.701Z,98152.11
2018-11-29T13:56:16.791Z,98136.80
2018-11-29T13:59:20.887Z,98135.98
2018-11-29T14:02:24.940Z,98135.20
2018-11-29T14:05:29.038Z,98138.17
2018-11-29T14:08:33.105Z,98135.46
2018-11-29T14:11:37.206Z,98140.20
2018-11-29T14:14:41.298Z,98131.84
2018-11-29T14:17:45.464Z,98135.93
2018-11-29T14:20:49.554Z,98135.44
2018-11-29T14:23:53.616Z,98145.73
2018-11-29T14:26:57.699Z,98139.17
2018-11-29T14:30:01.768Z,98134.11
2018-11-29T14:33:06.000Z,98124.86
2018-11-29T14:36:10.084Z,98124.66
2018-11-29T14:39:14.167Z,98130.10
2018-11-29T14:42:18.267Z,98139.95
2018-11-29T14:45:22.334Z,98128.23
2018-11-29T14:48:26.433Z,98114.75
2018-11-29T14:51:30.514Z,98113.43
2018-11-29T14:54:34.587Z,98107.47
2018-11-29T14:57:38.735Z,98109.19
2018-11-29T15:00:42.836Z,98110.47
2018-11-29T15:03:46.913Z,98104.40
2018-11-29T15:06:50.984Z,98095.75
2018-11-29T15:09:55.055Z,98090.72
2018-11-29T15:12:59.158Z,98089.57
2018-11-29T15:16:03.446Z,98086.45
2018-11-29T15:19:07.513Z,98081.45
2018-11-29T15:22:11.604Z,98060.42
2018-11-29T15:25:15.679Z,98051.36
2018-11-29T15:28:19.776Z,98042.48
2018-11-29T15:31:23.863Z,98039.59
2018-11-29T15:34:27.956Z,98034.27
2018-11-29T15:37:32.055Z,98018.88
2018-11-29T15:40:36.192Z,98032.58
2018-11-29T15:43:40.287Z,98060.64
2018-11-29T15:46:44.359Z,98069.41
2018-11-29T15:49:48.528Z,98065.37
2018-11-29T15:52:52.602Z,98065.39
2018-11-29T15:55:56.718Z,98076.28
2018-11-29T15:59:00.803Z,98093.44
2018-11-29T16:02:05.325Z,98106.17
2018-11-29T16:05:09.487Z,98109.58
2018-11-29T16:08:13.557Z,98092.44
2018-11-29T16:11:17.649Z,98104.47
2018-11-29T16:14:21.752Z,98099.98
2018-11-29T16:17:25.814Z,98091.62
2018-11-29T16:20:29.885Z,98089.67
2018-11-29T16:23:33.949Z,98073.96
2018-11-29T16:26:38.080Z,98076.08
2018-11-29T16:29:42.252Z,98074.54
2018-11-29T16:32:46.316Z,98066.13
2018-11-29T16:35:50.485Z,98072.64
2018-11-29T16:38:54.623Z,98061.25
2018-11-29T16:41:58.762Z,98062.64
2018-11-29T16:45:03.114Z,98061.08
2018-11-29T16:48:07.207Z,98060.84
2018-11-29T16:51:11.325Z,98064.55
2018-11-29T16:54:15.396Z,98069.31
2018-11-29T16:57:19.489Z,98068.73
2018-11-29T17:00:23.562Z,98056.90
2018-11-29T17:03:27.641Z,98055.38
2018-11-29T17:06:31.702Z,98046.95
2018-11-29T17:09:35.783Z,98052.69
2018-11-29T17:12:39.845Z,98052.80
2018-11-29T17:15:43.931Z,98054.35
2018-11-29T17:18:47.994Z,98051.51
2018-11-29T17:21:52.107Z,98052.13
2018-11-29T17:24:56.180Z,98046.28
2018-11-29T17:28:00.303Z,98057.07
2018-11-29T17:31:05.114Z,98056.41
2018-11-29T17:34:09.226Z,98054.50
2018-11-29T17:37:13.314Z,98055.65
2018-11-29T17:40:18.371Z,98045.06
2018-11-29T17:43:22.437Z,98033.77
2018-11-29T17:46:26.541Z,98041.03
2018-11-29T17:49:30.638Z,98041.20
2018-11-29T17:52:34.791Z,98039.48
2018-11-29T17:55:38.956Z,98033.21
2018-11-29T17:59:50.276Z,98029.66
2018-11-29T18:02:54.445Z,98020.50
2018-11-29T18:05:58.528Z,98026.26
2018-11-29T18:09:03.499Z,98023.86
2018-11-29T18:12:09.365Z,98030.69
2018-11-29T18:15:13.527Z,98037.81
2018-11-29T18:18:17.603Z,98033.57
2018-11-29T18:21:49.195Z,98043.80
2018-11-29T18:24:53.287Z,98043.31
2018-11-29T18:27:57.392Z,98038.64
2018-11-29T18:31:01.488Z,98043.35
2018-11-29T18:34:05.739Z,98036.11
2018-11-29T18:37:09.831Z,98037.86
2018-11-29T18:40:13.958Z,98043.59
2018-11-29T18:43:18.037Z,98038.70
2018-11-29T18:46:22.098Z,98036.12
2018-11-29T18:49:26.178Z,98035.92
2018-11-29T18:52:30.274Z,98042.53
2018-11-29T18:55:34.378Z,98037.86
2018-11-29T18:58:38.474Z,98042.37
2018-11-29T19:01:42.539Z,98037.23
2018-11-29T19:04:46.637Z,98036.23
2018-11-29T19:07:50.851Z,98031.03
2018-11-29T19:10:54.942Z,98038.49
2018-11-29T19:13:59.058Z,98037.98
2018-11-29T19:17:03.150Z,98030.96
2018-11-29T19:20:07.399Z,98034.70
2018-11-29T19:23:11.481Z,98030.51
2018-11-29T19:26:15.574Z,98025.08
2018-11-29T19:29:19.663Z,98027.13
2018-11-29T19:32:23.751Z,98032.96
2018-11-29T19:35:27.851Z,98024.94
2018-11-29T19:38:31.929Z,98024.34
2018-11-29T19:41:36.115Z,98010.23
2018-11-29T19:44:40.218Z,98010.67
2018-11-29T19:47:44.310Z,98007.17
2018-11-29T19:50:48.389Z,98020.73
2018-11-29T19:53:52.458Z,98014.80
2018-11-29T19:56:56.552Z,98018.77
2018-11-29T20:00:00.621Z,98012.13
2018-11-29T20:03:05.087Z,98018.93
2018-11-29T20:06:09.182Z,98012.81
2018-11-29T20:09:13.261Z,98018.29
2018-11-29T20:12:17.365Z,98025.34
2018-11-29T20:15:21.432Z,98024.23
2018-11-29T20:18:25.524Z,98029.02
2018-11-29T20:21:29.589Z,98024.65
2018-11-29T20:24:33.685Z,98022.00
2018-11-29T20:27:37.753Z,98026.58
2018-11-29T20:30:41.866Z,98021.27
2018-11-29T20:33:46.009Z,98019.18
2018-11-29T20:36:51.030Z,98022.74
2018-11-29T20:39:55.113Z,98032.77
2018-11-29T20:42:59.281Z,98038.69
2018-11-29T20:46:03.345Z,98035.09
2018-11-29T20:49:07.434Z,98028.17
2018-11-29T20:52:11.508Z,98028.70
2018-11-29T20:55:15.608Z,98029.21
2018-11-29T20:58:19.702Z,98037.04
2018-11-29T21:01:23.782Z,98036.47
2018-11-29T21:04:27.867Z,98029.41
2018-11-29T21:07:31.946Z,98035.48
2018-11-29T21:10:36.069Z,98042.91
2018-11-29T21:13:40.121Z,98040.32
2018-11-29T21:16:44.247Z,98044.08
2018-11-29T21:19:48.347Z,98045.32
2018-11-29T21:22:53.292Z,98044.84
2018-11-29T21:25:57.384Z,98035.00
2018-11-29T21:29:01.486Z,98044.68
2018-11-29T21:32:05.843Z,98039.24
2018-11-29T21:35:10.069Z,98032.41
2018-11-29T21:38:14.246Z,98033.77
2018-11-29T21:41:18.325Z,98024.78
2018-11-29T21:44:22.399Z,98025.97
2018-11-29T21:47:26.465Z,98019.14
2018-11-29T21:50:30.570Z,98018.73
2018-11-29T21:53:34.681Z,98019.09
2018-11-29T21:56:38.786Z,98015.14
2018-11-29T21:59:42.851Z,98010.55
2018-11-29T22:02:46.944Z,98010.77
2018-11-29T22:05:51.027Z,98018.00
2018-11-29T22:08:55.196Z,98020.25
2018-11-29T22:12:00.961Z,98018.16
2018-11-29T22:15:48.707Z,98019.00
2018-11-29T22:23:47.942Z,98010.66
2018-11-29T22:27:50.156Z,98005.67
2018-11-29T22:32:10.006Z,98012.86
2018-11-29T22:35:14.077Z,98009.16
2018-11-29T22:38:18.247Z,98019.93
2018-11-29T22:41:22.339Z,98017.02
2018-11-29T22:44:26.435Z,98011.20
2018-11-29T22:47:30.550Z,98006.36
2018-11-29T22:50:34.637Z,98006.64
2018-11-29T22:53:38.717Z,98002.36
2018-11-29T22:56:42.827Z,97999.31
2018-11-29T22:59:47.024Z,98000.52
2018-11-29T23:02:51.068Z,98002.58
2018-11-29T23:05:55.156Z,97999.40
2018-11-29T23:08:59.228Z,97997.30
2018-11-29T23:12:03.325Z,97998.50
2018-11-29T23:15:08.916Z,97993.54
2018-11-29T23:18:13.047Z,97995.91
2018-11-29T23:21:17.139Z,97987.85
2018-11-29T23:24:21.216Z,97988.47
2018-11-29T23:27:25.302Z,97989.66
2018-11-29T23:30:29.380Z,97986.42
2018-11-29T23:33:33.573Z,97981.75
2018-11-29T23:36:37.637Z,97976.70
2018-11-29T23:39:41.697Z,97978.39
2018-11-29T23:42:45.847Z,97985.18
2018-11-29T23:45:50.015Z,97989.98
2018-11-29T23:48:54.098Z,97995.74
2018-11-29T23:51:58.184Z,97998.20
2018-11-29T23:55:02.247Z,97995.70
2018-11-29T23:58:06.490Z,97985.66
